Time;durP1;ratioP1;P1;durP2;ratioP2;P2;SDS_P1;SDS_P2;PMS_P1;PMS_P2;Temp;Humidity;BMP_temperature;BMP_pressure;BME280_temperature;BME280_humidity;BME280_pressure;Samples;Min_cycle;Max_cycle;Signal;HPM_P1;HPM_P2
2024/01/16 00:00:52;;;;;;;4.20;1.10;;;;;;;;;;5077049;28;20223;-71
2024/01/16 00:03:18;;;;;;;2.47;1.27;;;;;;;;;;5081394;28;20181;-72
2024/01/16 00:05:44;;;;;;;2.83;0.90;;;;;;;;;;5079256;28;20749;-72
2024/01/16 00:08:10;;;;;;;2.63;1.30;;;;;;;;;;5080841;28;20215;-72
2024/01/16 00:10:36;;;;;;;1.37;0.83;;;;;;;;;;5082588;28;20289;-72
2024/01/16 00:13:02;;;;;;;8.47;2.17;;;;;;;;;;5086530;28;20262;-72
2024/01/16 00:15:28;;;;;;;2.77;1.30;;;;;;;;;;5085187;28;20218;-70
2024/01/16 00:17:54;;;;;;;2.30;1.07;;;;;;;;;;5064064;28;20206;-72
2024/01/16 00:20:21;;;;;;;4.97;1.00;;;;;;;;;;5081100;28;20224;-72
2024/01/16 00:22:47;;;;;;;2.13;1.10;;;;;;;;;;5080893;28;20689;-70
2024/01/16 00:25:14;;;;;;;4.83;0.87;;;;;;;;;;5087009;28;20245;-72
2024/01/16 00:27:40;;;;;;;1.33;0.90;;;;;;;;;;5079357;28;20257;-71
2024/01/16 00:30:06;;;;;;;2.07;0.90;;;;;;;;;;5072758;28;20176;-71
2024/01/16 00:32:32;;;;;;;5.30;1.27;;;;;;;;;;5075673;28;20257;-70
2024/01/16 00:34:59;;;;;;;1.47;1.07;;;;;;;;;;5076193;28;20211;-69
2024/01/16 00:37:26;;;;;;;4.50;1.23;;;;;;;;;;5073534;28;20701;-70
2024/01/16 00:39:52;;;;;;;1.97;1.20;;;;;;;;;;5077393;28;20210;-70
2024/01/16 00:42:18;;;;;;;5.07;1.17;;;;;;;;;;5079001;28;20561;-69
2024/01/16 00:44:44;;;;;;;1.80;1.23;;;;;;;;;;5076481;28;20170;-70
2024/01/16 00:47:10;;;;;;;1.87;1.00;;;;;;;;;;5077251;28;20253;-71
2024/01/16 00:49:36;;;;;;;0.70;0.70;;;;;;;;;;5076038;28;20234;-70
2024/01/16 00:52:02;;;;;;;1.20;0.87;;;;;;;;;;5077836;28;20205;-70
2024/01/16 00:54:29;;;;;;;5.13;1.47;;;;;;;;;;5076723;28;20213;-70
2024/01/16 00:56:59;;;;;;;4.77;1.17;;;;;;;;;;5075892;28;20257;-70
2024/01/16 00:59:25;;;;;;;2.47;0.77;;;;;;;;;;5077425;28;20755;-70
2024/01/16 01:01:51;;;;;;;2.43;1.20;;;;;;;;;;5075898;28;20215;-70
2024/01/16 01:04:17;;;;;;;2.60;1.20;;;;;;;;;;5079701;28;20625;-68
2024/01/16 01:06:43;;;;;;;0.90;0.63;;;;;;;;;;5070668;28;20206;-70
2024/01/16 01:09:12;;;;;;;4.07;0.80;;;;;;;;;;5074224;28;20582;-70
2024/01/16 01:11:39;;;;;;;1.60;0.60;;;;;;;;;;5077149;28;20920;-69
2024/01/16 01:14:05;;;;;;;0.80;0.60;;;;;;;;;;5053720;28;20199;-71
2024/01/16 01:16:31;;;;;;;1.63;1.00;;;;;;;;;;5078797;28;20217;-71
2024/01/16 01:18:57;;;;;;;2.10;1.00;;;;;;;;;;5076936;28;20257;-70
2024/01/16 01:21:23;;;;;;;2.10;0.60;;;;;;;;;;5077237;28;20202;-71
2024/01/16 01:23:49;;;;;;;2.10;0.80;;;;;;;;;;5076507;28;20183;-70
2024/01/16 01:26:17;;;;;;;2.23;1.00;;;;;;;;;;5076147;28;20206;-71
2024/01/16 01:28:44;;;;;;;0.83;0.70;;;;;;;;;;5076518;28;20206;-71
2024/01/16 01:31:12;;;;;;;2.50;1.00;;;;;;;;;;5077906;28;20206;-71
2024/01/16 01:33:38;;;;;;;1.00;0.70;;;;;;;;;;5075865;28;20883;-69
2024/01/16 01:36:05;;;;;;;0.90;0.70;;;;;;;;;;5073748;28;20250;-71
2024/01/16 01:38:31;;;;;;;5.90;0.63;;;;;;;;;;5076907;28;20209;-70
2024/01/16 01:40:57;;;;;;;1.20;0.77;;;;;;;;;;5074807;28;20839;-70
2024/01/16 01:43:24;;;;;;;3.07;0.70;;;;;;;;;;5078594;28;20206;-70
2024/01/16 01:46:09;;;;;;;2.80;0.60;;;;;;;;;;5074723;28;20210;-70
2024/01/16 01:48:35;;;;;;;0.43;0.43;;;;;;;;;;5072110;28;20206;-70
2024/01/16 01:51:02;;;;;;;1.10;0.77;;;;;;;;;;5076622;28;20221;-70
2024/01/16 01:53:29;;;;;;;2.33;0.77;;;;;;;;;;5071318;28;20205;-69
2024/01/16 01:55:55;;;;;;;1.23;0.70;;;;;;;;;;5075169;28;20221;-70
2024/01/16 01:58:21;;;;;;;1.83;0.80;;;;;;;;;;5077842;28;20202;-70
2024/01/16 02:00:47;;;;;;;4.13;0.73;;;;;;;;;;5073975;28;20202;-70
2024/01/16 02:03:14;;;;;;;0.57;0.57;;;;;;;;;;5079088;28;20184;-71
2024/01/16 02:05:39;;;;;;;8.63;1.00;;;;;;;;;;5078945;28;20205;-70
2024/01/16 02:08:06;;;;;;;1.30;0.70;;;;;;;;;;5075742;28;20860;-71
2024/01/16 02:10:32;;;;;;;3.37;0.80;;;;;;;;;;5079673;28;20289;-71
2024/01/16 02:12:58;;;;;;;0.63;0.53;;;;;;;;;;5067566;28;20226;-69
2024/01/16 02:15:24;;;;;;;5.43;1.00;;;;;;;;;;5078854;28;20225;-70
2024/01/16 02:17:51;;;;;;;1.00;0.80;;;;;;;;;;5076898;28;20169;-71
2024/01/16 02:20:17;;;;;;;2.53;0.73;;;;;;;;;;5079161;28;20211;-70
2024/01/16 02:22:46;;;;;;;2.00;0.80;;;;;;;;;;5081678;28;20221;-70
2024/01/16 02:25:12;;;;;;;0.77;0.50;;;;;;;;;;5059928;28;20210;-70
2024/01/16 02:27:38;;;;;;;3.50;0.60;;;;;;;;;;5072024;28;20222;-69
2024/01/16 02:30:04;;;;;;;3.93;0.87;;;;;;;;;;5080771;28;20292;-71
2024/01/16 02:32:30;;;;;;;0.93;0.70;;;;;;;;;;5079026;28;20216;-71
2024/01/16 02:34:56;;;;;;;1.97;1.00;;;;;;;;;;5079132;28;20211;-71
2024/01/16 02:37:23;;;;;;;2.90;0.80;;;;;;;;;;5077654;28;20285;-71
2024/01/16 02:39:49;;;;;;;2.20;0.77;;;;;;;;;;5077857;28;20230;-69
2024/01/16 02:42:15;;;;;;;1.43;0.80;;;;;;;;;;5082471;28;20208;-71
2024/01/16 02:44:41;;;;;;;3.40;1.03;;;;;;;;;;5079626;28;20171;-71
2024/01/16 02:47:07;;;;;;;1.33;1.00;;;;;;;;;;5073180;28;20215;-71
2024/01/16 02:49:33;;;;;;;1.10;0.70;;;;;;;;;;5076822;28;20316;-71
2024/01/16 02:51:59;;;;;;;1.03;0.67;;;;;;;;;;5077703;28;20216;-70
2024/01/16 02:54:25;;;;;;;1.40;0.90;;;;;;;;;;5081097;28;20178;-71
2024/01/16 02:56:51;;;;;;;1.80;0.63;;;;;;;;;;5077833;28;20180;-71
2024/01/16 02:59:17;;;;;;;2.43;1.00;;;;;;;;;;5074041;28;20261;-71
2024/01/16 03:01:43;;;;;;;0.97;0.70;;;;;;;;;;5080476;28;20219;-71
2024/01/16 03:04:09;;;;;;;4.30;1.00;;;;;;;;;;5062226;28;20205;-71
2024/01/16 03:06:35;;;;;;;1.87;1.00;;;;;;;;;;5071994;28;20210;-71
2024/01/16 03:09:01;;;;;;;2.07;0.90;;;;;;;;;;5073815;28;20181;-71
2024/01/16 03:11:27;;;;;;;3.77;1.07;;;;;;;;;;5075362;28;20581;-69
2024/01/16 03:13:53;;;;;;;3.30;0.93;;;;;;;;;;5079204;28;20209;-71
2024/01/16 03:16:19;;;;;;;1.27;0.80;;;;;;;;;;5057003;28;20225;-69
2024/01/16 03:18:45;;;;;;;3.20;1.03;;;;;;;;;;5077608;28;20288;-71
2024/01/16 03:21:14;;;;;;;3.27;0.87;;;;;;;;;;5074543;28;20220;-71
2024/01/16 03:23:40;;;;;;;2.17;0.90;;;;;;;;;;5074011;28;20183;-70
2024/01/16 03:26:06;;;;;;;2.20;1.07;;;;;;;;;;5060569;28;20237;-71
2024/01/16 03:28:32;;;;;;;1.97;1.20;;;;;;;;;;5065120;28;20594;-71
2024/01/16 03:30:58;;;;;;;2.10;0.90;;;;;;;;;;5066274;28;20228;-69
2024/01/16 03:33:24;;;;;;;4.97;1.20;;;;;;;;;;5065306;28;20172;-71
2024/01/16 03:35:50;;;;;;;1.90;0.60;;;;;;;;;;5067240;28;20599;-68
2024/01/16 03:38:16;;;;;;;1.77;0.87;;;;;;;;;;5066949;28;20308;-71
2024/01/16 03:40:42;;;;;;;2.93;1.23;;;;;;;;;;5063358;28;20212;-71
2024/01/16 03:43:08;;;;;;;2.57;1.30;;;;;;;;;;5066445;28;20222;-70
2024/01/16 03:45:34;;;;;;;2.97;1.00;;;;;;;;;;5064422;28;20236;-71
2024/01/16 03:48:00;;;;;;;3.47;1.13;;;;;;;;;;5068825;28;20190;-71
2024/01/16 03:50:26;;;;;;;1.33;0.90;;;;;;;;;;5067243;28;20207;-71
2024/01/16 03:52:52;;;;;;;4.73;1.23;;;;;;;;;;5064291;28;20225;-70
2024/01/16 03:55:18;;;;;;;3.27;1.50;;;;;;;;;;5067434;28;20776;-71
2024/01/16 03:57:44;;;;;;;5.43;1.30;;;;;;;;;;5063657;28;20248;-71
2024/01/16 04:00:15;;;;;;;2.60;1.40;;;;;;;;;;5068566;28;20661;-71
2024/01/16 04:02:41;;;;;;;1.80;1.07;;;;;;;;;;5068978;28;20251;-71
2024/01/16 04:05:07;;;;;;;1.47;1.10;;;;;;;;;;5066930;28;20309;-71
2024/01/16 04:07:33;;;;;;;3.83;1.23;;;;;;;;;;5074844;28;20210;-72
2024/01/16 04:09:59;;;;;;;2.57;1.07;;;;;;;;;;5078432;28;20245;-71
2024/01/16 04:12:25;;;;;;;3.23;1.40;;;;;;;;;;5073548;28;20207;-71
2024/01/16 04:14:51;;;;;;;1.67;1.13;;;;;;;;;;5074958;28;20641;-71
2024/01/16 04:17:17;;;;;;;3.53;1.20;;;;;;;;;;5096209;28;20261;-72
2024/01/16 04:19:43;;;;;;;2.57;1.37;;;;;;;;;;5070723;28;20866;-70
2024/01/16 04:22:09;;;;;;;3.03;1.30;;;;;;;;;;5067467;28;20261;-68
2024/01/16 04:24:35;;;;;;;2.27;1.50;;;;;;;;;;5062352;28;20333;-71
2024/01/16 04:27:01;;;;;;;1.87;1.43;;;;;;;;;;5064090;28;20262;-71
2024/01/16 04:29:27;;;;;;;5.37;1.57;;;;;;;;;;5067222;28;20367;-71
2024/01/16 04:31:53;;;;;;;1.60;1.30;;;;;;;;;;5061698;28;20294;-71
2024/01/16 04:34:19;;;;;;;2.70;1.03;;;;;;;;;;5063938;28;20700;-71
2024/01/16 04:36:45;;;;;;;3.67;1.10;;;;;;;;;;5068159;28;20207;-71
2024/01/16 04:39:11;;;;;;;4.07;1.00;;;;;;;;;;5061200;28;20179;-71
2024/01/16 04:41:37;;;;;;;4.00;1.70;;;;;;;;;;5066269;28;20243;-71
2024/01/16 04:44:03;;;;;;;2.67;1.43;;;;;;;;;;5062925;28;20564;-71
2024/01/16 04:46:29;;;;;;;2.30;1.47;;;;;;;;;;5057980;28;20210;-69
2024/01/16 04:48:55;;;;;;;4.07;1.20;;;;;;;;;;5066736;28;20214;-70
2024/01/16 04:51:21;;;;;;;3.67;1.10;;;;;;;;;;5058098;28;20229;-70
2024/01/16 04:53:47;;;;;;;2.07;1.20;;;;;;;;;;5065230;28;20211;-71
2024/01/16 04:56:13;;;;;;;1.97;1.07;;;;;;;;;;5062750;28;20214;-71
2024/01/16 04:58:39;;;;;;;1.20;1.00;;;;;;;;;;5061578;28;20972;-70
2024/01/16 05:01:05;;;;;;;1.00;0.90;;;;;;;;;;5063629;28;20245;-71
2024/01/16 05:03:31;;;;;;;4.47;1.23;;;;;;;;;;5067717;28;20239;-71
2024/01/16 05:05:57;;;;;;;1.90;1.23;;;;;;;;;;5065786;28;20610;-70
2024/01/16 05:08:24;;;;;;;2.47;1.27;;;;;;;;;;5065860;28;20449;-71
2024/01/16 05:10:50;;;;;;;6.10;1.30;;;;;;;;;;5082719;28;20206;-71
2024/01/16 05:13:16;;;;;;;3.37;1.47;;;;;;;;;;5063966;28;20211;-71
2024/01/16 05:15:42;;;;;;;3.63;1.43;;;;;;;;;;5063378;28;20220;-71
2024/01/16 05:18:09;;;;;;;3.37;1.40;;;;;;;;;;5061575;28;20655;-70
2024/01/16 05:20:35;;;;;;;3.60;1.80;;;;;;;;;;5065526;28;20259;-71
2024/01/16 05:23:01;;;;;;;5.43;2.10;;;;;;;;;;5062717;28;20223;-71
2024/01/16 05:25:27;;;;;;;3.60;1.70;;;;;;;;;;5059466;28;20259;-70
2024/01/16 05:27:53;;;;;;;3.53;1.97;;;;;;;;;;5067873;28;20823;-72
2024/01/16 05:30:19;;;;;;;2.33;2.00;;;;;;;;;;5058054;28;20242;-70
2024/01/16 05:32:45;;;;;;;1.73;1.30;;;;;;;;;;5060105;28;20593;-71
2024/01/16 05:35:11;;;;;;;4.57;1.70;;;;;;;;;;5083194;28;20212;-71
2024/01/16 05:37:37;;;;;;;3.30;1.70;;;;;;;;;;5075645;28;20217;-72
2024/01/16 05:40:04;;;;;;;2.57;1.63;;;;;;;;;;5083450;28;20236;-71
2024/01/16 05:42:30;;;;;;;4.20;2.10;;;;;;;;;;5087396;28;20312;-72
2024/01/16 05:44:56;;;;;;;5.63;2.07;;;;;;;;;;5088949;28;20195;-72
2024/01/16 05:47:24;;;;;;;4.93;2.17;;;;;;;;;;5087159;28;20218;-71
2024/01/16 05:49:50;;;;;;;4.77;2.80;;;;;;;;;;5088076;28;20209;-72
2024/01/16 05:52:16;;;;;;;6.53;2.23;;;;;;;;;;5080503;28;20329;-72
2024/01/16 05:54:42;;;;;;;5.43;2.10;;;;;;;;;;5081541;28;20215;-72
2024/01/16 05:57:08;;;;;;;3.23;1.90;;;;;;;;;;5080705;28;20193;-72
2024/01/16 05:59:34;;;;;;;5.50;2.07;;;;;;;;;;5076581;28;20205;-71
2024/01/16 06:02:00;;;;;;;2.77;1.73;;;;;;;;;;5079843;28;20240;-71
2024/01/16 06:04:26;;;;;;;4.00;2.40;;;;;;;;;;5075588;28;20194;-71
2024/01/16 06:06:52;;;;;;;7.00;3.03;;;;;;;;;;5077148;28;20253;-72
2024/01/16 06:09:18;;;;;;;4.07;2.33;;;;;;;;;;5075591;28;20716;-71
2024/01/16 06:11:44;;;;;;;5.13;3.23;;;;;;;;;;5075750;28;20699;-72
2024/01/16 06:14:12;;;;;;;4.20;2.60;;;;;;;;;;5074424;28;20202;-71
2024/01/16 06:16:38;;;;;;;3.00;2.50;;;;;;;;;;5074757;28;20297;-69
2024/01/16 06:19:05;;;;;;;3.90;2.57;;;;;;;;;;5070391;28;20228;-72
2024/01/16 06:21:31;;;;;;;4.00;2.40;;;;;;;;;;5082073;28;20224;-72
2024/01/16 06:23:57;;;;;;;8.50;2.40;;;;;;;;;;5086011;28;20260;-71
2024/01/16 06:26:24;;;;;;;4.50;2.63;;;;;;;;;;5083661;28;20281;-71
2024/01/16 06:28:51;;;;;;;2.90;1.83;;;;;;;;;;5081693;28;20381;-71
2024/01/16 06:31:17;;;;;;;4.13;2.37;;;;;;;;;;5080346;28;20206;-72
2024/01/16 06:33:43;;;;;;;3.33;2.13;;;;;;;;;;5077013;28;20740;-70
2024/01/16 06:36:09;;;;;;;8.77;3.67;;;;;;;;;;5063738;28;20185;-71
2024/01/16 06:38:35;;;;;;;4.93;2.30;;;;;;;;;;5084100;28;20223;-71
2024/01/16 06:41:02;;;;;;;4.67;2.20;;;;;;;;;;5081932;28;20202;-71
2024/01/16 06:43:28;;;;;;;3.70;2.30;;;;;;;;;;5081228;28;20695;-71
2024/01/16 06:45:54;;;;;;;2.17;1.70;;;;;;;;;;5083940;28;20209;-71
2024/01/16 06:48:20;;;;;;;5.40;2.00;;;;;;;;;;5062769;28;20178;-72
2024/01/16 06:50:46;;;;;;;4.07;1.90;;;;;;;;;;5081075;28;20194;-71
2024/01/16 06:53:13;;;;;;;3.77;2.03;;;;;;;;;;5078248;28;20230;-71
2024/01/16 06:55:39;;;;;;;4.97;2.10;;;;;;;;;;5079854;28;20208;-71
2024/01/16 06:58:05;;;;;;;3.97;2.10;;;;;;;;;;5080090;28;20257;-71
2024/01/16 07:00:31;;;;;;;2.03;1.50;;;;;;;;;;5077542;28;20246;-71
2024/01/16 07:02:57;;;;;;;3.63;1.87;;;;;;;;;;5065587;28;20258;-71
2024/01/16 07:05:24;;;;;;;3.20;2.00;;;;;;;;;;5079206;28;20211;-71
2024/01/16 07:07:50;;;;;;;3.23;1.57;;;;;;;;;;5078340;28;20205;-71
2024/01/16 07:10:21;;;;;;;4.13;1.90;;;;;;;;;;5078517;28;20244;-72
2024/01/16 07:12:49;;;;;;;3.83;1.80;;;;;;;;;;5076397;28;20693;-71
2024/01/16 07:15:15;;;;;;;4.60;2.10;;;;;;;;;;5059472;28;20177;-71
2024/01/16 07:17:41;;;;;;;2.57;1.60;;;;;;;;;;5080605;28;20184;-71
2024/01/16 07:20:07;;;;;;;6.80;2.00;;;;;;;;;;5077460;28;20213;-71
2024/01/16 07:22:37;;;;;;;5.93;2.27;;;;;;;;;;5075568;28;20222;-72
2024/01/16 07:25:03;;;;;;;6.80;2.07;;;;;;;;;;5079760;28;20218;-71
2024/01/16 07:27:29;;;;;;;2.83;2.23;;;;;;;;;;5077898;28;20347;-70
2024/01/16 07:29:56;;;;;;;3.00;2.40;;;;;;;;;;5081623;28;20185;-71
2024/01/16 07:32:22;;;;;;;4.83;2.10;;;;;;;;;;5058319;28;20212;-69
2024/01/16 07:34:48;;;;;;;4.57;2.07;;;;;;;;;;5077197;28;20203;-71
2024/01/16 07:37:15;;;;;;;5.23;2.40;;;;;;;;;;5079698;28;20282;-71
2024/01/16 07:39:41;;;;;;;5.17;2.70;;;;;;;;;;5077466;28;20286;-71
2024/01/16 07:42:07;;;;;;;3.13;1.57;;;;;;;;;;5077242;28;20347;-71
2024/01/16 07:44:33;;;;;;;5.77;2.20;;;;;;;;;;5078750;28;20205;-71
2024/01/16 07:47:00;;;;;;;5.17;2.43;;;;;;;;;;5072592;28;20222;-71
2024/01/16 07:49:26;;;;;;;2.80;1.70;;;;;;;;;;5077714;28;20206;-71
2024/01/16 07:51:52;;;;;;;4.83;2.13;;;;;;;;;;5081435;28;20211;-70
2024/01/16 07:54:18;;;;;;;8.87;3.00;;;;;;;;;;5078487;28;20181;-71
2024/01/16 07:56:45;;;;;;;2.77;2.07;;;;;;;;;;5081554;28;20181;-72
2024/01/16 07:59:11;;;;;;;3.77;2.20;;;;;;;;;;5080554;28;20213;-71
2024/01/16 08:01:37;;;;;;;4.27;2.30;;;;;;;;;;5079512;28;20332;-71
2024/01/16 08:04:03;;;;;;;6.43;2.20;;;;;;;;;;5080906;28;20297;-72
2024/01/16 08:06:30;;;;;;;5.83;2.33;;;;;;;;;;5079942;28;20214;-71
2024/01/16 08:08:56;;;;;;;4.40;2.23;;;;;;;;;;5081122;28;20261;-71
2024/01/16 08:11:22;;;;;;;8.47;2.83;;;;;;;;;;5072658;28;20250;-72
2024/01/16 08:13:48;;;;;;;8.40;2.73;;;;;;;;;;5072206;28;20874;-70
2024/01/16 08:16:14;;;;;;;7.63;3.17;;;;;;;;;;5073903;28;20218;-71
2024/01/16 08:18:40;;;;;;;4.23;2.20;;;;;;;;;;5076554;28;20232;-71
2024/01/16 08:21:07;;;;;;;3.60;2.03;;;;;;;;;;5059781;28;20189;-70
2024/01/16 08:23:33;;;;;;;5.20;2.77;;;;;;;;;;5077523;28;20203;-69
2024/01/16 08:26:00;;;;;;;4.13;2.83;;;;;;;;;;5078200;28;20265;-71
2024/01/16 08:28:26;;;;;;;7.20;2.70;;;;;;;;;;5075277;28;20206;-72
2024/01/16 08:30:52;;;;;;;8.73;2.73;;;;;;;;;;5060569;28;20213;-72
2024/01/16 08:33:18;;;;;;;6.23;2.63;;;;;;;;;;5058161;28;20247;-69
2024/01/16 08:35:44;;;;;;;4.37;2.47;;;;;;;;;;5077639;28;20261;-72
2024/01/16 08:38:11;;;;;;;5.43;2.57;;;;;;;;;;5077534;28;20213;-71
2024/01/16 08:40:37;;;;;;;7.87;2.40;;;;;;;;;;5073326;28;20206;-71
2024/01/16 08:43:03;;;;;;;5.60;3.23;;;;;;;;;;5079695;28;20277;-71
2024/01/16 08:45:29;;;;;;;6.17;2.40;;;;;;;;;;5071666;28;20221;-72
2024/01/16 08:47:55;;;;;;;8.20;2.87;;;;;;;;;;5078767;28;20182;-71
2024/01/16 08:50:22;;;;;;;5.00;2.63;;;;;;;;;;5073755;28;20243;-72
2024/01/16 08:52:48;;;;;;;6.23;1.90;;;;;;;;;;5071358;28;20207;-71
2024/01/16 08:55:14;;;;;;;5.50;2.37;;;;;;;;;;5077557;28;20299;-76
2024/01/16 08:57:40;;;;;;;6.63;2.80;;;;;;;;;;5072435;28;20226;-73
2024/01/16 09:00:06;;;;;;;4.40;2.87;;;;;;;;;;5070965;28;20256;-73
2024/01/16 09:02:32;;;;;;;7.20;2.97;;;;;;;;;;5072261;28;20235;-72
2024/01/16 09:04:59;;;;;;;5.73;2.63;;;;;;;;;;5053163;28;20761;-73
2024/01/16 09:07:25;;;;;;;7.73;2.77;;;;;;;;;;5069967;28;20211;-73
2024/01/16 09:09:51;;;;;;;6.50;3.57;;;;;;;;;;5070283;28;20278;-73
2024/01/16 09:12:17;;;;;;;4.33;2.90;;;;;;;;;;5055003;28;20210;-73
2024/01/16 09:14:44;;;;;;;17.00;7.17;;;;;;;;;;5055119;28;20201;-74
2024/01/16 09:17:10;;;;;;;6.10;3.63;;;;;;;;;;5066823;28;20296;-74
2024/01/16 09:19:36;;;;;;;4.77;2.70;;;;;;;;;;5039462;28;20213;-75
2024/01/16 09:22:03;;;;;;;7.23;2.90;;;;;;;;;;5074788;28;20692;-73
2024/01/16 09:24:29;;;;;;;5.47;2.90;;;;;;;;;;5067652;28;20254;-72
2024/01/16 09:26:55;;;;;;;6.33;3.30;;;;;;;;;;5066135;28;20188;-74
2024/01/16 09:29:22;;;;;;;8.73;3.50;;;;;;;;;;5061408;28;20245;-73
2024/01/16 09:31:48;;;;;;;8.13;3.57;;;;;;;;;;5095205;28;20199;-73
2024/01/16 09:34:14;;;;;;;7.37;3.60;;;;;;;;;;5094103;28;20208;-77
2024/01/16 09:36:41;;;;;;;5.17;2.80;;;;;;;;;;5069218;28;20211;-79
2024/01/16 09:39:16;;;;;;;9.93;3.10;;;;;;;;;;5076872;28;20175;-76
2024/01/16 09:41:42;;;;;;;9.83;3.20;;;;;;;;;;5090814;28;20233;-75
2024/01/16 09:44:08;;;;;;;4.07;2.40;;;;;;;;;;5085340;28;20224;-75
2024/01/16 09:46:35;;;;;;;5.07;2.63;;;;;;;;;;5086822;28;20230;-74
2024/01/16 09:49:04;;;;;;;4.10;2.60;;;;;;;;;;5069632;28;20628;-74
2024/01/16 09:51:30;;;;;;;5.40;3.43;;;;;;;;;;5086571;28;20232;-75
2024/01/16 09:53:56;;;;;;;6.57;2.93;;;;;;;;;;5082824;28;20182;-75
2024/01/16 09:56:28;;;;;;;12.60;3.17;;;;;;;;;;5081228;28;20240;-74
2024/01/16 09:58:59;;;;;;;9.93;3.37;;;;;;;;;;5077376;28;20207;-74
2024/01/16 10:01:28;;;;;;;7.07;2.80;;;;;;;;;;5061523;28;20814;-74
2024/01/16 10:03:54;;;;;;;3.87;2.43;;;;;;;;;;5072023;28;20211;-74
2024/01/16 10:06:22;;;;;;;8.57;2.63;;;;;;;;;;5070062;28;20175;-74
2024/01/16 10:08:48;;;;;;;6.87;3.33;;;;;;;;;;5070722;28;20186;-73
2024/01/16 10:11:14;;;;;;;5.27;2.63;;;;;;;;;;5077214;28;20212;-74
2024/01/16 10:13:41;;;;;;;5.10;2.93;;;;;;;;;;5076053;28;20210;-73
2024/01/16 10:16:07;;;;;;;4.73;2.93;;;;;;;;;;5073772;28;20224;-73
2024/01/16 10:18:33;;;;;;;3.70;2.70;;;;;;;;;;5072569;28;20228;-74
2024/01/16 10:21:00;;;;;;;4.10;2.53;;;;;;;;;;5075571;28;20197;-74
2024/01/16 10:23:27;;;;;;;9.07;2.73;;;;;;;;;;5052687;28;20264;-75
2024/01/16 10:26:06;;;;;;;4.80;2.13;;;;;;;;;;5077775;28;20228;-74
2024/01/16 10:28:34;;;;;;;3.83;2.10;;;;;;;;;;5081405;28;20296;-76
2024/01/16 10:31:03;;;;;;;5.00;2.70;;;;;;;;;;5068348;28;20249;-74
2024/01/16 10:33:29;;;;;;;9.40;2.20;;;;;;;;;;5073786;28;20223;-74
2024/01/16 10:36:25;;;;;;;2.43;2.07;;;;;;;;;;5078955;28;20177;-74
2024/01/16 10:38:57;;;;;;;3.80;1.97;;;;;;;;;;5061453;28;20229;-75
2024/01/16 10:41:27;;;;;;;2.93;1.80;;;;;;;;;;5063198;28;20330;-77
2024/01/16 10:44:04;;;;;;;3.20;1.60;;;;;;;;;;5065759;28;20285;-77
2024/01/16 10:46:30;;;;;;;4.50;1.93;;;;;;;;;;5079154;28;20218;-74
2024/01/16 10:49:00;;;;;;;4.83;2.07;;;;;;;;;;5058833;28;20211;-77
2024/01/16 10:51:28;;;;;;;4.33;1.37;;;;;;;;;;5078347;28;20227;-75
2024/01/16 10:53:59;;;;;;;2.97;1.70;;;;;;;;;;5068107;28;20212;-75
2024/01/16 10:56:25;;;;;;;2.83;1.60;;;;;;;;;;5074918;28;20222;-79
2024/01/16 10:58:58;;;;;;;4.03;2.10;;;;;;;;;;5075417;28;20292;-73
2024/01/16 11:01:24;;;;;;;3.40;1.60;;;;;;;;;;5065670;28;20229;-75
2024/01/16 11:03:56;;;;;;;2.40;1.23;;;;;;;;;;5073135;28;20246;-76
2024/01/16 11:06:23;;;;;;;3.20;1.63;;;;;;;;;;5077534;28;20167;-76
2024/01/16 11:08:49;;;;;;;2.13;1.57;;;;;;;;;;5066768;28;20179;-77
2024/01/16 11:11:16;;;;;;;3.73;1.80;;;;;;;;;;5076027;28;20205;-75
2024/01/16 11:13:46;;;;;;;2.90;1.93;;;;;;;;;;5081336;28;20206;-76
2024/01/16 11:16:12;;;;;;;4.00;1.67;;;;;;;;;;5077425;28;20687;-76
2024/01/16 11:18:38;;;;;;;2.73;1.13;;;;;;;;;;5075981;28;20214;-75
2024/01/16 11:21:11;;;;;;;6.17;1.80;;;;;;;;;;5071940;28;20179;-74
2024/01/16 11:23:38;;;;;;;7.37;1.90;;;;;;;;;;5072024;28;20234;-74
2024/01/16 11:26:22;;;;;;;4.93;1.80;;;;;;;;;;5070307;28;20240;-73
2024/01/16 11:28:48;;;;;;;5.07;1.40;;;;;;;;;;5068994;28;20231;-75
2024/01/16 11:31:35;;;;;;;3.33;1.50;;;;;;;;;;5071821;28;20276;-74
2024/01/16 11:34:01;;;;;;;3.07;1.70;;;;;;;;;;5078785;28;20221;-73
2024/01/16 11:36:46;;;;;;;5.73;2.03;;;;;;;;;;5066018;28;20213;-75
2024/01/16 11:39:17;;;;;;;8.67;2.03;;;;;;;;;;5034141;28;20199;-74
2024/01/16 11:41:51;;;;;;;6.67;2.20;;;;;;;;;;5043010;28;20258;-75
2024/01/16 11:44:35;;;;;;;3.90;2.00;;;;;;;;;;5078318;28;20220;-75
2024/01/16 11:47:05;;;;;;;4.20;2.13;;;;;;;;;;5060691;28;20246;-73
2024/01/16 11:49:34;;;;;;;4.00;1.70;;;;;;;;;;5071327;28;20251;-75
2024/01/16 11:52:00;;;;;;;4.47;2.47;;;;;;;;;;5046237;28;20221;-73
2024/01/16 11:54:26;;;;;;;4.67;2.10;;;;;;;;;;5065302;28;20222;-73
2024/01/16 11:56:55;;;;;;;6.40;2.20;;;;;;;;;;5066435;28;20182;-75
2024/01/16 11:59:40;;;;;;;5.70;2.23;;;;;;;;;;5071670;28;20210;-74
2024/01/16 12:02:11;;;;;;;6.93;2.60;;;;;;;;;;5066822;28;20214;-75
2024/01/16 12:04:37;;;;;;;10.67;2.90;;;;;;;;;;5068017;28;20211;-75
2024/01/16 12:07:03;;;;;;;10.30;2.93;;;;;;;;;;5073256;28;20290;-74
2024/01/16 12:09:29;;;;;;;8.40;2.90;;;;;;;;;;5074555;28;20222;-74
2024/01/16 12:12:00;;;;;;;5.20;3.07;;;;;;;;;;5072955;28;20196;-74
2024/01/16 12:14:27;;;;;;;10.27;2.97;;;;;;;;;;5074583;28;20324;-74
2024/01/16 12:16:53;;;;;;;4.50;2.63;;;;;;;;;;5074939;28;20235;-74
2024/01/16 12:19:19;;;;;;;4.27;2.57;;;;;;;;;;5077423;28;20208;-74
2024/01/16 12:21:45;;;;;;;9.87;3.30;;;;;;;;;;5076763;28;20815;-74
2024/01/16 12:24:12;;;;;;;5.73;2.63;;;;;;;;;;5072568;28;20184;-74
2024/01/16 12:26:39;;;;;;;7.63;3.10;;;;;;;;;;5061410;28;20193;-74
2024/01/16 12:29:05;;;;;;;6.00;3.40;;;;;;;;;;5055438;28;20203;-74
2024/01/16 12:31:31;;;;;;;7.53;3.07;;;;;;;;;;5079401;28;20217;-74
2024/01/16 12:34:07;;;;;;;7.00;2.67;;;;;;;;;;5076335;28;20234;-74
2024/01/16 12:36:33;;;;;;;5.03;2.80;;;;;;;;;;5073878;28;20212;-74
2024/01/16 12:38:59;;;;;;;5.67;2.37;;;;;;;;;;5076828;28;20181;-74
2024/01/16 12:41:26;;;;;;;6.13;2.87;;;;;;;;;;5077657;28;20212;-74
2024/01/16 12:43:52;;;;;;;4.90;2.37;;;;;;;;;;5075199;28;20211;-74
2024/01/16 12:46:19;;;;;;;6.17;2.60;;;;;;;;;;5079041;28;20274;-74
2024/01/16 12:48:47;;;;;;;3.73;2.67;;;;;;;;;;5074239;28;20243;-75
2024/01/16 12:51:13;;;;;;;6.80;2.57;;;;;;;;;;5060817;28;20207;-74
2024/01/16 12:53:39;;;;;;;9.33;2.30;;;;;;;;;;5076543;28;20940;-74
2024/01/16 12:56:07;;;;;;;6.47;2.70;;;;;;;;;;5074830;28;20201;-75
2024/01/16 12:58:34;;;;;;;9.80;2.70;;;;;;;;;;5077882;28;20274;-76
2024/01/16 13:01:20;;;;;;;5.33;2.40;;;;;;;;;;5046069;28;20300;-75
2024/01/16 13:03:46;;;;;;;6.30;2.37;;;;;;;;;;5075368;28;20675;-75
2024/01/16 13:06:18;;;;;;;4.87;2.43;;;;;;;;;;5061079;28;20171;-75
2024/01/16 13:08:44;;;;;;;5.30;2.20;;;;;;;;;;5069378;28;20170;-75
2024/01/16 13:11:10;;;;;;;3.63;2.13;;;;;;;;;;5076184;28;20291;-76
2024/01/16 13:13:37;;;;;;;7.37;1.87;;;;;;;;;;5076648;28;20202;-75
2024/01/16 13:16:05;;;;;;;7.13;2.40;;;;;;;;;;5070943;28;20223;-75
2024/01/16 13:18:32;;;;;;;4.83;2.00;;;;;;;;;;5079885;28;20217;-75
2024/01/16 13:20:59;;;;;;;4.23;1.87;;;;;;;;;;5071999;28;20180;-74
2024/01/16 13:23:25;;;;;;;4.90;2.17;;;;;;;;;;5058109;28;20724;-76
2024/01/16 13:25:51;;;;;;;3.10;2.23;;;;;;;;;;5075352;28;20822;-75
2024/01/16 13:28:18;;;;;;;6.33;2.50;;;;;;;;;;5074115;28;20203;-75
2024/01/16 13:30:45;;;;;;;8.37;2.23;;;;;;;;;;5073169;28;20293;-75
2024/01/16 13:33:11;;;;;;;5.30;2.03;;;;;;;;;;5063181;28;20206;-74
2024/01/16 13:35:39;;;;;;;7.87;2.03;;;;;;;;;;5054445;28;20238;-75
2024/01/16 13:38:06;;;;;;;6.70;2.47;;;;;;;;;;5058309;28;20215;-75
2024/01/16 13:40:32;;;;;;;9.57;2.20;;;;;;;;;;5076425;28;20206;-75
2024/01/16 13:42:59;;;;;;;5.27;2.30;;;;;;;;;;5074414;28;20587;-75
2024/01/16 13:45:25;;;;;;;5.07;2.10;;;;;;;;;;5075606;28;20221;-75
2024/01/16 13:47:51;;;;;;;3.13;1.90;;;;;;;;;;5076054;28;20207;-75
2024/01/16 13:50:17;;;;;;;2.60;1.77;;;;;;;;;;5077115;28;20219;-74
2024/01/16 13:52:43;;;;;;;7.00;1.90;;;;;;;;;;5073716;28;20212;-75
2024/01/16 13:55:09;;;;;;;3.23;1.50;;;;;;;;;;5071430;28;20767;-75
2024/01/16 13:57:36;;;;;;;2.50;1.77;;;;;;;;;;5077286;28;20252;-75
2024/01/16 14:00:06;;;;;;;8.97;2.17;;;;;;;;;;5056566;28;20229;-74
2024/01/16 14:02:34;;;;;;;2.77;1.40;;;;;;;;;;5081121;28;20206;-74
2024/01/16 14:05:00;;;;;;;4.33;1.87;;;;;;;;;;5059928;28;20211;-75
2024/01/16 14:07:26;;;;;;;5.87;2.33;;;;;;;;;;5052440;28;20636;-74
2024/01/16 14:09:52;;;;;;;4.00;1.77;;;;;;;;;;5077017;28;20641;-75
2024/01/16 14:12:19;;;;;;;4.83;2.23;;;;;;;;;;5079299;28;20278;-74
2024/01/16 14:14:45;;;;;;;2.60;1.87;;;;;;;;;;5081104;28;20171;-75
2024/01/16 14:17:11;;;;;;;6.97;3.10;;;;;;;;;;5079596;28;20223;-75
2024/01/16 14:19:38;;;;;;;6.53;2.47;;;;;;;;;;5079479;28;20720;-75
2024/01/16 14:22:04;;;;;;;6.37;1.90;;;;;;;;;;5077648;28;20219;-75
2024/01/16 14:24:30;;;;;;;7.07;2.23;;;;;;;;;;5079754;28;20627;-76
2024/01/16 14:26:57;;;;;;;4.03;2.30;;;;;;;;;;5079866;28;20230;-76
2024/01/16 14:29:23;;;;;;;12.43;2.13;;;;;;;;;;5079756;28;20270;-75
2024/01/16 14:31:49;;;;;;;6.27;2.20;;;;;;;;;;5086246;28;20225;-75
2024/01/16 14:34:15;;;;;;;5.63;2.13;;;;;;;;;;5075397;28;20220;-75
2024/01/16 14:36:42;;;;;;;2.70;1.70;;;;;;;;;;5080711;28;20226;-75
2024/01/16 14:39:13;;;;;;;4.63;1.63;;;;;;;;;;5057419;28;20178;-75
2024/01/16 14:41:42;;;;;;;6.27;2.10;;;;;;;;;;5060870;28;20214;-74